sensor_id;sensor_type;location;lat;lon;timestamp;pressure;altitude;pressure_sealevel;temperature;humidity
4167;BME280;2097;51.104;7.150;2022-09-29T00:00:32;97286.53;;;7.46;100.00
4167;BME280;2097;51.104;7.150;2022-09-29T00:02:59;97150.59;;;6.62;100.00
4167;BME280;2097;51.104;7.150;2022-09-29T00:05:26;97285.94;;;7.42;100.00
4167;BME280;2097;51.104;7.150;2022-09-29T00:07:54;97284.16;;;7.43;100.00
4167;BME280;2097;51.104;7.150;2022-09-29T00:10:21;97275.69;;;7.41;100.00
4167;BME280;2097;51.104;7.150;2022-09-29T00:12:48;97286.00;;;7.41;100.00
4167;BME280;2097;51.104;7.150;2022-09-29T00:15:14;97279.19;;;7.40;100.00
4167;BME280;2097;51.104;7.150;2022-09-29T00:17:41;97282.72;;;7.39;100.00
4167;BME280;2097;51.104;7.150;2022-09-29T00:20:08;97281.28;;;7.35;100.00
4167;BME280;2097;51.104;7.150;2022-09-29T00:22:34;97278.19;;;7.30;100.00
4167;BME280;2097;51.104;7.150;2022-09-29T00:25:03;97225.00;;;6.91;100.00
4167;BME280;2097;51.104;7.150;2022-09-29T00:27:29;97123.41;;;6.08;100.00
4167;BME280;2097;51.104;7.150;2022-09-29T00:29:56;97278.63;;;7.11;100.00
4167;BME280;2097;51.104;7.150;2022-09-29T00:32:22;97279.25;;;7.02;100.00
4167;BME280;2097;51.104;7.150;2022-09-29T00:34:49;97204.41;;;6.54;100.00
4167;BME280;2097;51.104;7.150;2022-09-29T00:37:16;97251.53;;;6.81;100.00
4167;BME280;2097;51.104;7.150;2022-09-29T00:39:42;97151.22;;;6.16;100.00
4167;BME280;2097;51.104;7.150;2022-09-29T00:42:11;97154.09;;;6.11;100.00
4167;BME280;2097;51.104;7.150;2022-09-29T00:45:10;97240.38;;;6.56;100.00
4167;BME280;2097;51.104;7.150;2022-09-29T00:47:39;97213.03;;;6.28;100.00
4167;BME280;2097;51.104;7.150;2022-09-29T00:50:11;97272.16;;;6.69;100.00
4167;BME280;2097;51.104;7.150;2022-09-29T00:52:42;97281.00;;;6.65;100.00
4167;BME280;2097;51.104;7.150;2022-09-29T00:55:13;97281.28;;;6.60;100.00
4167;BME280;2097;51.104;7.150;2022-09-29T00:57:46;97285.00;;;6.56;100.00
4167;BME280;2097;51.104;7.150;2022-09-29T01:00:15;97213.88;;;6.16;100.00
4167;BME280;2097;51.104;7.150;2022-09-29T01:02:45;97207.00;;;6.03;100.00
4167;BME280;2097;51.104;7.150;2022-09-29T01:05:17;97230.72;;;6.08;100.00
4167;BME280;2097;51.104;7.150;2022-09-29T01:07:47;97280.66;;;6.32;100.00
4167;BME280;2097;51.104;7.150;2022-09-29T01:10:14;97283.31;;;6.30;100.00
4167;BME280;2097;51.104;7.150;2022-09-29T01:12:45;97223.69;;;5.97;100.00
4167;BME280;2097;51.104;7.150;2022-09-29T01:15:15;97216.34;;;5.91;100.00
4167;BME280;2097;51.104;7.150;2022-09-29T01:17:43;97077.44;;;5.00;100.00
4167;BME280;2097;51.104;7.150;2022-09-29T01:20:13;97280.81;;;6.16;100.00
4167;BME280;2097;51.104;7.150;2022-09-29T01:26:28;97139.97;;;5.27;100.00
4167;BME280;2097;51.104;7.150;2022-09-29T01:29:15;97282.75;;;6.13;100.00
4167;BME280;2097;51.104;7.150;2022-09-29T01:31:55;97284.69;;;6.09;100.00
4167;BME280;2097;51.104;7.150;2022-09-29T01:34:28;97287.22;;;5.97;100.00
4167;BME280;2097;51.104;7.150;2022-09-29T01:37:05;97289.16;;;5.93;100.00
4167;BME280;2097;51.104;7.150;2022-09-29T01:39:35;97291.31;;;5.87;100.00
4167;BME280;2097;51.104;7.150;2022-09-29T01:42:06;97115.13;;;4.73;100.00
4167;BME280;2097;51.104;7.150;2022-09-29T01:44:37;97294.53;;;5.76;100.00
4167;BME280;2097;51.104;7.150;2022-09-29T01:47:08;97289.47;;;5.75;100.00
4167;BME280;2097;51.104;7.150;2022-09-29T01:49:39;97251.97;;;5.31;100.00
4167;BME280;2097;51.104;7.150;2022-09-29T01:52:11;97105.59;;;4.47;100.00
4167;BME280;2097;51.104;7.150;2022-09-29T01:54:44;97292.50;;;5.67;100.00
4167;BME280;2097;51.104;7.150;2022-09-29T01:57:16;97209.31;;;5.14;100.00
4167;BME280;2097;51.104;7.150;2022-09-29T01:59:48;97219.03;;;5.23;100.00
4167;BME280;2097;51.104;7.150;2022-09-29T02:02:21;97231.03;;;5.37;100.00
4167;BME280;2097;51.104;7.150;2022-09-29T02:04:53;97301.59;;;5.73;100.00
4167;BME280;2097;51.104;7.150;2022-09-29T02:07:27;97103.41;;;4.55;100.00
4167;BME280;2097;51.104;7.150;2022-09-29T02:10:00;97292.88;;;5.75;100.00
4167;BME280;2097;51.104;7.150;2022-09-29T02:12:29;97293.78;;;5.74;100.00
4167;BME280;2097;51.104;7.150;2022-09-29T02:15:02;97295.63;;;5.72;100.00
4167;BME280;2097;51.104;7.150;2022-09-29T02:17:38;97299.31;;;5.68;100.00
4167;BME280;2097;51.104;7.150;2022-09-29T02:20:06;97292.50;;;5.67;100.00
4167;BME280;2097;51.104;7.150;2022-09-29T02:22:35;97295.16;;;5.66;100.00
4167;BME280;2097;51.104;7.150;2022-09-29T02:25:03;97302.19;;;5.64;100.00
4167;BME280;2097;51.104;7.150;2022-09-29T02:27:30;97299.69;;;5.62;100.00
4167;BME280;2097;51.104;7.150;2022-09-29T02:29:58;97295.38;;;5.63;100.00
4167;BME280;2097;51.104;7.150;2022-09-29T02:32:25;97210.91;;;5.03;100.00
4167;BME280;2097;51.104;7.150;2022-09-29T02:34:54;97247.84;;;5.28;100.00
4167;BME280;2097;51.104;7.150;2022-09-29T02:37:30;97296.00;;;5.66;100.00
4167;BME280;2097;51.104;7.150;2022-09-29T02:40:09;97296.56;;;5.57;100.00
4167;BME280;2097;51.104;7.150;2022-09-29T02:42:50;97223.44;;;5.21;100.00
4167;BME280;2097;51.104;7.150;2022-09-29T02:45:28;97296.81;;;5.67;100.00
4167;BME280;2097;51.104;7.150;2022-09-29T02:48:16;97290.75;;;5.68;100.00
4167;BME280;2097;51.104;7.150;2022-09-29T02:50:55;97295.28;;;5.64;100.00
4167;BME280;2097;51.104;7.150;2022-09-29T02:53:33;97295.16;;;5.66;100.00
4167;BME280;2097;51.104;7.150;2022-09-29T02:56:06;96790.75;;;2.43;100.00
4167;BME280;2097;51.104;7.150;2022-09-29T02:58:39;97290.03;;;5.66;100.00
4167;BME280;2097;51.104;7.150;2022-09-29T03:01:11;97296.19;;;5.63;100.00
4167;BME280;2097;51.104;7.150;2022-09-29T03:03:38;97154.38;;;4.75;100.00
4167;BME280;2097;51.104;7.150;2022-09-29T03:06:06;97291.63;;;5.55;100.00
4167;BME280;2097;51.104;7.150;2022-09-29T03:08:34;97009.56;;;3.81;100.00
4167;BME280;2097;51.104;7.150;2022-09-29T03:11:00;97288.13;;;5.56;100.00
4167;BME280;2097;51.104;7.150;2022-09-29T03:13:27;97298.03;;;5.61;100.00
4167;BME280;2097;51.104;7.150;2022-09-29T03:15:53;97298.22;;;5.58;100.00
4167;BME280;2097;51.104;7.150;2022-09-29T03:18:20;97301.91;;;5.55;100.00
4167;BME280;2097;51.104;7.150;2022-09-29T03:20:47;97193.94;;;4.86;100.00
4167;BME280;2097;51.104;7.150;2022-09-29T03:23:15;97293.00;;;5.46;100.00
4167;BME280;2097;51.104;7.150;2022-09-29T03:25:42;97297.59;;;5.41;100.00
4167;BME280;2097;51.104;7.150;2022-09-29T03:28:09;97218.25;;;4.95;100.00
4167;BME280;2097;51.104;7.150;2022-09-29T03:30:35;97287.63;;;5.37;100.00
4167;BME280;2097;51.104;7.150;2022-09-29T03:33:02;97290.16;;;5.51;100.00
4167;BME280;2097;51.104;7.150;2022-09-29T03:35:28;97062.88;;;4.04;100.00
4167;BME280;2097;51.104;7.150;2022-09-29T03:37:56;96854.09;;;2.83;100.00
4167;BME280;2097;51.104;7.150;2022-09-29T03:40:25;96913.41;;;3.19;100.00
4167;BME280;2097;51.104;7.150;2022-09-29T03:42:52;97288.69;;;5.47;100.00
4167;BME280;2097;51.104;7.150;2022-09-29T03:45:19;97095.25;;;4.21;100.00
4167;BME280;2097;51.104;7.150;2022-09-29T03:47:45;97304.41;;;5.42;100.00
4167;BME280;2097;51.104;7.150;2022-09-29T03:50:12;97183.28;;;4.64;100.00
4167;BME280;2097;51.104;7.150;2022-09-29T03:52:39;97293.38;;;5.40;100.00
4167;BME280;2097;51.104;7.150;2022-09-29T03:55:06;97294.97;;;5.43;100.00
4167;BME280;2097;51.104;7.150;2022-09-29T03:57:34;97294.97;;;5.43;100.00
4167;BME280;2097;51.104;7.150;2022-09-29T04:00:01;97058.41;;;3.80;100.00
4167;BME280;2097;51.104;7.150;2022-09-29T04:02:27;97299.75;;;5.35;100.00
4167;BME280;2097;51.104;7.150;2022-09-29T04:04:54;97307.34;;;5.36;100.00
4167;BME280;2097;51.104;7.150;2022-09-29T04:07:20;97306.53;;;5.36;100.00
4167;BME280;2097;51.104;7.150;2022-09-29T04:09:47;97310.47;;;5.41;100.00
4167;BME280;2097;51.104;7.150;2022-09-29T04:12:14;96894.03;;;2.85;100.00
4167;BME280;2097;51.104;7.150;2022-09-29T04:14:41;97339.06;;;5.37;100.00
4167;BME280;2097;51.104;7.150;2022-09-29T04:17:08;97183.94;;;4.54;100.00
4167;BME280;2097;51.104;7.150;2022-09-29T04:19:34;97316.34;;;5.29;100.00
4167;BME280;2097;51.104;7.150;2022-09-29T04:22:01;97313.88;;;5.28;100.00
4167;BME280;2097;51.104;7.150;2022-09-29T04:24:28;97211.34;;;4.67;100.00
4167;BME280;2097;51.104;7.150;2022-09-29T04:26:54;96773.75;;;1.99;100.00
4167;BME280;2097;51.104;7.150;2022-09-29T04:29:21;97244.78;;;4.81;100.00
4167;BME280;2097;51.104;7.150;2022-09-29T04:31:49;97319.22;;;5.25;100.00
4167;BME280;2097;51.104;7.150;2022-09-29T04:34:15;97322.88;;;5.21;100.00
4167;BME280;2097;51.104;7.150;2022-09-29T04:36:42;97098.84;;;3.61;100.00
4167;BME280;2097;51.104;7.150;2022-09-29T04:39:08;97154.66;;;4.15;100.00
4167;BME280;2097;51.104;7.150;2022-09-29T04:41:35;97325.38;;;5.22;100.00
4167;BME280;2097;51.104;7.150;2022-09-29T04:44:03;97245.94;;;4.62;100.00
4167;BME280;2097;51.104;7.150;2022-09-29T04:46:30;97325.63;;;5.18;100.00
4167;BME280;2097;51.104;7.150;2022-09-29T04:48:58;97326.47;;;5.18;100.00
4167;BME280;2097;51.104;7.150;2022-09-29T04:51:25;97166.31;;;4.20;100.00
4167;BME280;2097;51.104;7.150;2022-09-29T04:53:51;97156.84;;;4.07;100.00
4167;BME280;2097;51.104;7.150;2022-09-29T04:56:18;97251.44;;;4.56;100.00
4167;BME280;2097;51.104;7.150;2022-09-29T04:58:45;97178.22;;;4.21;100.00
4167;BME280;2097;51.104;7.150;2022-09-29T05:01:11;97340.25;;;5.17;100.00
4167;BME280;2097;51.104;7.150;2022-09-29T05:03:38;97272.28;;;4.79;100.00
4167;BME280;2097;51.104;7.150;2022-09-29T05:06:07;97279.56;;;4.73;100.00
4167;BME280;2097;51.104;7.150;2022-09-29T05:08:34;97337.84;;;5.14;100.00
4167;BME280;2097;51.104;7.150;2022-09-29T05:11:03;97282.81;;;4.75;100.00
4167;BME280;2097;51.104;7.150;2022-09-29T05:13:29;97345.47;;;5.16;100.00
4167;BME280;2097;51.104;7.150;2022-09-29T05:15:56;97292.47;;;4.71;100.00
4167;BME280;2097;51.104;7.150;2022-09-29T05:18:23;97277.78;;;4.73;100.00
4167;BME280;2097;51.104;7.150;2022-09-29T05:20:49;97229.31;;;4.40;100.00
4167;BME280;2097;51.104;7.150;2022-09-29T05:23:18;97347.47;;;5.11;100.00
4167;BME280;2097;51.104;7.150;2022-09-29T05:25:45;97042.09;;;3.24;100.00
4167;BME280;2097;51.104;7.150;2022-09-29T05:28:12;97349.50;;;5.06;100.00
4167;BME280;2097;51.104;7.150;2022-09-29T05:30:40;97353.81;;;5.05;100.00
4167;BME280;2097;51.104;7.150;2022-09-29T05:33:06;97246.09;;;4.31;100.00
4167;BME280;2097;51.104;7.150;2022-09-29T05:35:33;97259.78;;;4.46;100.00
4167;BME280;2097;51.104;7.150;2022-09-29T05:38:00;96947.78;;;2.56;100.00
4167;BME280;2097;51.104;7.150;2022-09-29T05:40:28;97265.91;;;4.43;100.00
4167;BME280;2097;51.104;7.150;2022-09-29T05:42:54;97329.44;;;4.83;100.00
4167;BME280;2097;51.104;7.150;2022-09-29T05:45:23;97242.28;;;4.23;100.00
4167;BME280;2097;51.104;7.150;2022-09-29T05:47:50;97196.88;;;3.95;100.00
4167;BME280;2097;51.104;7.150;2022-09-29T05:50:17;97364.44;;;4.99;100.00
4167;BME280;2097;51.104;7.150;2022-09-29T05:52:43;97366.09;;;5.00;100.00
4167;BME280;2097;51.104;7.150;2022-09-29T05:55:13;97372.72;;;5.04;100.00
4167;BME280;2097;51.104;7.150;2022-09-29T05:57:41;97368.31;;;5.06;100.00
4167;BME280;2097;51.104;7.150;2022-09-29T06:00:08;97381.84;;;5.10;100.00
4167;BME280;2097;51.104;7.150;2022-09-29T06:02:35;97378.13;;;5.14;100.00
4167;BME280;2097;51.104;7.150;2022-09-29T06:05:04;97279.78;;;4.54;100.00
4167;BME280;2097;51.104;7.150;2022-09-29T06:07:31;97377.22;;;5.15;100.00
4167;BME280;2097;51.104;7.150;2022-09-29T06:09:57;97377.97;;;5.17;100.00
4167;BME280;2097;51.104;7.150;2022-09-29T06:12:24;97381.44;;;5.16;100.00
4167;BME280;2097;51.104;7.150;2022-09-29T06:14:52;96713.34;;;1.22;100.00
4167;BME280;2097;51.104;7.150;2022-09-29T06:17:18;97385.88;;;5.28;100.00
4167;BME280;2097;51.104;7.150;2022-09-29T06:19:45;97276.97;;;4.73;100.00
4167;BME280;2097;51.104;7.150;2022-09-29T06:22:12;97337.22;;;5.25;100.00
4167;BME280;2097;51.104;7.150;2022-09-29T06:24:38;97378.16;;;5.56;100.00
4167;BME280;2097;51.104;7.150;2022-09-29T06:27:07;97285.31;;;5.04;100.00
4167;BME280;2097;51.104;7.150;2022-09-29T06:29:33;97386.81;;;5.68;100.00
4167;BME280;2097;51.104;7.150;2022-09-29T06:32:01;97390.00;;;5.72;100.00
4167;BME280;2097;51.104;7.150;2022-09-29T06:34:28;97216.22;;;4.58;100.00
4167;BME280;2097;51.104;7.150;2022-09-29T06:36:56;97033.44;;;3.40;100.00
4167;BME280;2097;51.104;7.150;2022-09-29T06:39:41;97395.66;;;5.78;100.00
4167;BME280;2097;51.104;7.150;2022-09-29T06:42:07;97229.34;;;4.67;100.00
4167;BME280;2097;51.104;7.150;2022-09-29T06:44:34;97402.91;;;5.86;100.00
4167;BME280;2097;51.104;7.150;2022-09-29T06:47:02;97407.75;;;5.90;100.00
4167;BME280;2097;51.104;7.150;2022-09-29T06:49:28;97332.41;;;5.47;100.00
4167;BME280;2097;51.104;7.150;2022-09-29T06:51:55;97403.88;;;5.97;100.00
4167;BME280;2097;51.104;7.150;2022-09-29T06:54:22;97395.06;;;6.01;100.00
4167;BME280;2097;51.104;7.150;2022-09-29T06:56:51;97406.53;;;6.10;100.00
4167;BME280;2097;51.104;7.150;2022-09-29T06:59:18;97408.44;;;6.20;100.00
4167;BME280;2097;51.104;7.150;2022-09-29T07:01:47;97350.66;;;5.98;100.00
4167;BME280;2097;51.104;7.150;2022-09-29T07:04:16;97319.72;;;5.71;100.00
4167;BME280;2097;51.104;7.150;2022-09-29T07:06:44;97407.13;;;6.54;100.00
4167;BME280;2097;51.104;7.150;2022-09-29T07:09:12;97253.63;;;5.46;100.00
4167;BME280;2097;51.104;7.150;2022-09-29T07:11:40;97343.66;;;6.26;100.00
4167;BME280;2097;51.104;7.150;2022-09-29T07:14:09;97310.81;;;6.03;100.00
4167;BME280;2097;51.104;7.150;2022-09-29T07:16:36;97412.88;;;6.71;100.00
4167;BME280;2097;51.104;7.150;2022-09-29T07:19:04;97290.81;;;5.94;100.00
4167;BME280;2097;51.104;7.150;2022-09-29T07:21:33;97343.63;;;6.40;100.00
4167;BME280;2097;51.104;7.150;2022-09-29T07:24:08;97415.81;;;6.91;100.00
4167;BME280;2097;51.104;7.150;2022-09-29T07:26:34;97415.09;;;7.02;100.00
4167;BME280;2097;51.104;7.150;2022-09-29T07:29:02;97191.81;;;5.59;100.00
4167;BME280;2097;51.104;7.150;2022-09-29T07:31:30;97363.38;;;6.78;100.00
4167;BME280;2097;51.104;7.150;2022-09-29T07:33:56;97305.97;;;6.38;100.00
4167;BME280;2097;51.104;7.150;2022-09-29T07:36:23;97423.56;;;7.16;100.00
4167;BME280;2097;51.104;7.150;2022-09-29T07:38:52;97428.66;;;7.18;100.00
4167;BME280;2097;51.104;7.150;2022-09-29T07:41:20;97430.09;;;7.22;100.00
4167;BME280;2097;51.104;7.150;2022-09-29T07:43:48;97314.97;;;6.57;100.00
4167;BME280;2097;51.104;7.150;2022-09-29T07:46:15;97444.66;;;7.35;100.00
4167;BME280;2097;51.104;7.150;2022-09-29T07:48:42;97377.88;;;7.06;100.00
4167;BME280;2097;51.104;7.150;2022-09-29T07:51:11;97428.25;;;7.36;100.00
4167;BME280;2097;51.104;7.150;2022-09-29T07:53:38;97439.41;;;7.62;100.00
4167;BME280;2097;51.104;7.150;2022-09-29T07:56:09;97440.41;;;7.72;100.00
4167;BME280;2097;51.104;7.150;2022-09-29T07:58:36;97390.47;;;7.48;100.00
4167;BME280;2097;51.104;7.150;2022-09-29T08:01:05;97442.06;;;7.85;100.00
4167;BME280;2097;51.104;7.150;2022-09-29T08:03:34;97324.75;;;7.16;100.00
4167;BME280;2097;51.104;7.150;2022-09-29T08:06:02;97405.94;;;7.73;100.00
4167;BME280;2097;51.104;7.150;2022-09-29T08:08:33;97457.75;;;8.07;100.00
4167;BME280;2097;51.104;7.150;2022-09-29T08:11:04;97341.13;;;7.52;100.00
4167;BME280;2097;51.104;7.150;2022-09-29T08:13:33;97450.09;;;8.30;100.00
4167;BME280;2097;51.104;7.150;2022-09-29T08:16:01;97454.16;;;8.45;100.00
4167;BME280;2097;51.104;7.150;2022-09-29T08:18:30;97395.53;;;8.10;100.00
4167;BME280;2097;51.104;7.150;2022-09-29T08:20:58;97378.22;;;7.99;100.00
4167;BME280;2097;51.104;7.150;2022-09-29T08:23:25;97460.41;;;8.66;100.00
4167;BME280;2097;51.104;7.150;2022-09-29T08:25:58;97462.31;;;8.75;100.00
4167;BME280;2097;51.104;7.150;2022-09-29T08:28:25;97467.28;;;8.78;100.00
4167;BME280;2097;51.104;7.150;2022-09-29T08:30:56;97467.69;;;8.85;100.00
4167;BME280;2097;51.104;7.150;2022-09-29T08:33:24;97453.19;;;8.82;100.00
4167;BME280;2097;51.104;7.150;2022-09-29T08:35:55;97469.38;;;8.97;100.00
4167;BME280;2097;51.104;7.150;2022-09-29T08:38:22;97472.81;;;8.97;100.00
4167;BME280;2097;51.104;7.150;2022-09-29T08:40:49;97449.09;;;8.80;100.00
4167;BME280;2097;51.104;7.150;2022-09-29T08:43:19;97480.50;;;9.09;100.00
4167;BME280;2097;51.104;7.150;2022-09-29T08:45:55;97259.19;;;7.79;100.00
4167;BME280;2097;51.104;7.150;2022-09-29T08:48:27;97489.38;;;9.29;100.00
4167;BME280;2097;51.104;7.150;2022-09-29T08:50:58;97408.50;;;8.80;100.00
4167;BME280;2097;51.104;7.150;2022-09-29T08:53:27;97487.78;;;9.39;100.00
4167;BME280;2097;51.104;7.150;2022-09-29T08:55:59;97488.72;;;9.38;100.00
4167;BME280;2097;51.104;7.150;2022-09-29T08:58:27;97486.72;;;9.41;100.00
4167;BME280;2097;51.104;7.150;2022-09-29T09:01:09;97457.13;;;9.22;100.00
4167;BME280;2097;51.104;7.150;2022-09-29T09:06:47;97499.03;;;9.61;100.00
4167;BME280;2097;51.104;7.150;2022-09-29T09:12:20;97219.16;;;8.08;100.00
4167;BME280;2097;51.104;7.150;2022-09-29T09:15:07;97456.88;;;9.70;100.00
4167;BME280;2097;51.104;7.150;2022-09-29T09:17:55;97506.06;;;10.05;100.00
4167;BME280;2097;51.104;7.150;2022-09-29T09:20:31;97503.72;;;10.13;100.00
4167;BME280;2097;51.104;7.150;2022-09-29T09:23:04;97499.97;;;10.17;100.00
4167;BME280;2097;51.104;7.150;2022-09-29T09:25:35;97510.78;;;10.21;100.00
4167;BME280;2097;51.104;7.150;2022-09-29T09:28:05;97508.66;;;10.37;100.00
4167;BME280;2097;51.104;7.150;2022-09-29T09:30:39;97510.78;;;10.54;100.00
4167;BME280;2097;51.104;7.150;2022-09-29T09:33:18;97400.16;;;9.89;100.00
4167;BME280;2097;51.104;7.150;2022-09-29T09:35:57;97514.66;;;10.60;100.00
4167;BME280;2097;51.104;7.150;2022-09-29T09:38:47;97348.69;;;9.63;100.00
4167;BME280;2097;51.104;7.150;2022-09-29T09:41:21;97501.31;;;10.64;100.00
4167;BME280;2097;51.104;7.150;2022-09-29T09:44:03;97513.97;;;10.69;100.00
4167;BME280;2097;51.104;7.150;2022-09-29T09:46:36;97436.53;;;10.31;100.00
4167;BME280;2097;51.104;7.150;2022-09-29T09:49:19;97515.78;;;10.89;100.00
4167;BME280;2097;51.104;7.150;2022-09-29T09:52:08;97386.16;;;10.14;100.00
4167;BME280;2097;51.104;7.150;2022-09-29T09:54:50;97515.63;;;11.01;100.00
4167;BME280;2097;51.104;7.150;2022-09-29T09:57:46;97519.38;;;11.19;100.00
4167;BME280;2097;51.104;7.150;2022-09-29T10:00:24;97459.69;;;11.08;100.00
4167;BME280;2097;51.104;7.150;2022-09-29T10:03:07;97422.69;;;10.95;100.00
4167;BME280;2097;51.104;7.150;2022-09-29T10:05:38;97488.94;;;11.41;100.00
4167;BME280;2097;51.104;7.150;2022-09-29T10:08:10;97505.53;;;11.61;100.00
4167;BME280;2097;51.104;7.150;2022-09-29T10:10:39;97461.69;;;11.36;100.00
4167;BME280;2097;51.104;7.150;2022-09-29T10:13:09;97513.59;;;11.78;100.00
4167;BME280;2097;51.104;7.150;2022-09-29T10:15:40;97487.50;;;11.69;100.00
4167;BME280;2097;51.104;7.150;2022-09-29T10:18:12;97521.94;;;12.02;100.00
4167;BME280;2097;51.104;7.150;2022-09-29T10:20:42;97444.91;;;11.81;100.00
4167;BME280;2097;51.104;7.150;2022-09-29T10:23:33;97321.31;;;11.37;100.00
4167;BME280;2097;51.104;7.150;2022-09-29T10:26:11;97525.94;;;12.75;100.00
4167;BME280;2097;51.104;7.150;2022-09-29T10:28:43;97532.66;;;12.68;100.00
4167;BME280;2097;51.104;7.150;2022-09-29T10:31:16;97513.59;;;12.77;100.00
4167;BME280;2097;51.104;7.150;2022-09-29T10:33:53;97534.16;;;13.10;100.00
4167;BME280;2097;51.104;7.150;2022-09-29T10:36:23;97526.47;;;13.18;100.00
4167;BME280;2097;51.104;7.150;2022-09-29T10:38:52;97534.69;;;13.04;100.00
4167;BME280;2097;51.104;7.150;2022-09-29T10:41:19;97489.88;;;12.52;100.00
4167;BME280;2097;51.104;7.150;2022-09-29T10:43:47;97489.44;;;12.47;100.00
4167;BME280;2097;51.104;7.150;2022-09-29T10:46:45;97536.75;;;12.71;100.00
4167;BME280;2097;51.104;7.150;2022-09-29T10:49:14;97490.25;;;12.48;100.00
4167;BME280;2097;51.104;7.150;2022-09-29T10:51:57;97479.38;;;12.33;100.00
4167;BME280;2097;51.104;7.150;2022-09-29T10:54:27;97378.28;;;11.80;100.00
4167;BME280;2097;51.104;7.150;2022-09-29T10:56:57;97551.59;;;12.80;100.00
4167;BME280;2097;51.104;7.150;2022-09-29T10:59:26;97549.94;;;12.79;100.00
4167;BME280;2097;51.104;7.150;2022-09-29T11:01:55;97544.22;;;12.85;100.00
4167;BME280;2097;51.104;7.150;2022-09-29T11:04:27;97550.81;;;12.89;100.00
4167;BME280;2097;51.104;7.150;2022-09-29T11:07:04;97549.00;;;12.89;100.00
4167;BME280;2097;51.104;7.150;2022-09-29T11:09:38;97547.88;;;12.82;100.00
4167;BME280;2097;51.104;7.150;2022-09-29T11:12:24;97554.56;;;12.75;100.00
4167;BME280;2097;51.104;7.150;2022-09-29T11:14:51;97555.81;;;12.71;100.00
4167;BME280;2097;51.104;7.150;2022-09-29T11:17:21;97476.16;;;12.20;100.00
4167;BME280;2097;51.104;7.150;2022-09-29T11:19:49;97517.03;;;12.39;100.00
4167;BME280;2097;51.104;7.150;2022-09-29T11:25:20;97554.56;;;12.75;99.72
4167;BME280;2097;51.104;7.150;2022-09-29T11:28:03;97488.22;;;12.51;98.87
4167;BME280;2097;51.104;7.150;2022-09-29T11:30:48;97558.56;;;13.09;97.69
4167;BME280;2097;51.104;7.150;2022-09-29T11:33:31;97560.44;;;12.98;97.24
4167;BME280;2097;51.104;7.150;2022-09-29T11:36:11;97429.72;;;12.06;96.81
4167;BME280;2097;51.104;7.150;2022-09-29T11:38:54;97561.16;;;12.79;96.68
4167;BME280;2097;51.104;7.150;2022-09-29T11:44:54;97565.19;;;12.53;96.78
4167;BME280;2097;51.104;7.150;2022-09-29T11:48:05;97537.69;;;12.31;96.51
4167;BME280;2097;51.104;7.150;2022-09-29T11:50:54;97571.47;;;12.51;97.19
4167;BME280;2097;51.104;7.150;2022-09-29T11:53:45;97543.88;;;12.39;96.02
4167;BME280;2097;51.104;7.150;2022-09-29T11:56:27;97433.53;;;11.72;95.51
4167;BME280;2097;51.104;7.150;2022-09-29T11:59:12;97572.31;;;12.61;95.23
4167;BME280;2097;51.104;7.150;2022-09-29T12:01:54;97524.84;;;12.39;95.22
4167;BME280;2097;51.104;7.150;2022-09-29T12:04:39;97570.75;;;12.69;94.56
4167;BME280;2097;51.104;7.150;2022-09-29T12:07:20;97569.78;;;12.70;94.49
4167;BME280;2097;51.104;7.150;2022-09-29T12:12:54;97572.91;;;12.64;94.43
4167;BME280;2097;51.104;7.150;2022-09-29T12:15:32;97572.22;;;12.62;94.10
4167;BME280;2097;51.104;7.150;2022-09-29T12:18:03;97573.97;;;12.62;94.20
4167;BME280;2097;51.104;7.150;2022-09-29T12:20:36;97495.47;;;12.18;93.08
4167;BME280;2097;51.104;7.150;2022-09-29T12:23:17;97559.88;;;12.55;93.52
4167;BME280;2097;51.104;7.150;2022-09-29T12:25:52;97561.09;;;12.60;93.63
4167;BME280;2097;51.104;7.150;2022-09-29T12:28:28;97482.81;;;12.34;92.68
4167;BME280;2097;51.104;7.150;2022-09-29T12:30:59;97562.81;;;13.10;91.84
4167;BME280;2097;51.104;7.150;2022-09-29T12:33:32;97563.81;;;13.38;91.05
4167;BME280;2097;51.104;7.150;2022-09-29T12:36:09;97561.38;;;13.65;89.47
4167;BME280;2097;51.104;7.150;2022-09-29T12:38:55;97502.50;;;13.62;88.07
4167;BME280;2097;51.104;7.150;2022-09-29T12:41:28;97561.84;;;14.25;86.71
4167;BME280;2097;51.104;7.150;2022-09-29T12:44:03;97562.78;;;14.43;86.01
4167;BME280;2097;51.104;7.150;2022-09-29T12:46:35;97513.69;;;14.10;84.85
4167;BME280;2097;51.104;7.150;2022-09-29T12:49:12;97555.03;;;14.14;85.26
4167;BME280;2097;51.104;7.150;2022-09-29T12:51:45;97529.78;;;13.67;85.83
4167;BME280;2097;51.104;7.150;2022-09-29T12:54:17;97567.09;;;13.87;86.02
4167;BME280;2097;51.104;7.150;2022-09-29T12:56:53;97560.53;;;13.83;85.90
4167;BME280;2097;51.104;7.150;2022-09-29T12:59:38;97558.22;;;13.80;85.68
4167;BME280;2097;51.104;7.150;2022-09-29T13:05:26;97484.59;;;13.86;84.82
4167;BME280;2097;51.104;7.150;2022-09-29T13:11:05;97562.00;;;14.69;82.49
4167;BME280;2097;51.104;7.150;2022-09-29T13:24:43;97575.41;;;15.37;79.76
4167;BME280;2097;51.104;7.150;2022-09-29T13:27:27;97575.50;;;15.45;79.46
4167;BME280;2097;51.104;7.150;2022-09-29T13:30:03;97566.41;;;15.49;78.61
4167;BME280;2097;51.104;7.150;2022-09-29T13:32:38;97576.38;;;15.36;78.35
4167;BME280;2097;51.104;7.150;2022-09-29T13:35:12;97577.72;;;15.40;77.84
4167;BME280;2097;51.104;7.150;2022-09-29T13:37:47;97577.31;;;15.45;77.36
4167;BME280;2097;51.104;7.150;2022-09-29T13:43:38;97579.66;;;15.38;76.21
4167;BME280;2097;51.104;7.150;2022-09-29T13:46:25;97584.59;;;15.41;74.90
4167;BME280;2097;51.104;7.150;2022-09-29T13:48:53;97580.91;;;15.44;75.08
4167;BME280;2097;51.104;7.150;2022-09-29T13:51:49;97526.53;;;15.20;73.79
4167;BME280;2097;51.104;7.150;2022-09-29T13:54:26;97550.25;;;15.36;72.92
4167;BME280;2097;51.104;7.150;2022-09-29T14:00:24;97591.88;;;15.65;72.22
4167;BME280;2097;51.104;7.150;2022-09-29T14:03:01;97583.22;;;15.64;71.94
4167;BME280;2097;51.104;7.150;2022-09-29T14:05:43;97587.41;;;15.57;71.53
4167;BME280;2097;51.104;7.150;2022-09-29T14:08:24;97591.69;;;15.31;72.38
4167;BME280;2097;51.104;7.150;2022-09-29T14:11:14;97559.00;;;14.91;73.06
4167;BME280;2097;51.104;7.150;2022-09-29T14:13:46;97594.00;;;15.07;73.17
4167;BME280;2097;51.104;7.150;2022-09-29T14:16:35;97592.63;;;15.03;73.04
4167;BME280;2097;51.104;7.150;2022-09-29T14:19:14;97602.75;;;15.16;73.00
4167;BME280;2097;51.104;7.150;2022-09-29T14:21:52;97598.47;;;15.24;72.20
4167;BME280;2097;51.104;7.150;2022-09-29T14:24:42;97604.84;;;15.39;72.11
4167;BME280;2097;51.104;7.150;2022-09-29T14:27:30;97604.34;;;15.53;71.54